Time;durP1;ratioP1;P1;durP2;ratioP2;P2;SDS_P1;SDS_P2;PMS_P1;PMS_P2;Temp;Humidity;BMP_temperature;BMP_pressure;BME280_temperature;BME280_humidity;BME280_pressure;Samples;Min_cycle;Max_cycle;Signal;HPM_P1;HPM_P2
2022/06/16 00:01:39;;;;;;;2.65;2.45;;;;;14.90;96386.00;;;;8374921;28;20243;-67
2022/06/16 00:05:44;;;;;;;5.43;3.05;;;;;14.90;96387.00;;;;8380971;28;20718;-68
2022/06/16 00:09:47;;;;;;;3.13;2.83;;;;;14.90;96389.00;;;;8389689;28;20206;-71
2022/06/16 00:13:53;;;;;;;5.28;3.58;;;;;14.90;96389.00;;;;8390587;28;20923;-68
2022/06/16 00:17:57;;;;;;;4.43;3.20;;;;;14.80;96389.00;;;;8388780;28;20292;-69
2022/06/16 00:22:00;;;;;;;3.25;2.90;;;;;14.80;96384.00;;;;8389640;28;20292;-70
2022/06/16 00:26:03;;;;;;;5.50;3.47;;;;;14.70;96383.00;;;;8392210;28;20255;-68
2022/06/16 00:30:10;;;;;;;5.07;3.10;;;;;14.80;96386.00;;;;8383087;28;20206;-70
2022/06/16 00:34:13;;;;;;;3.78;3.40;;;;;14.80;96391.00;;;;8365878;28;20944;-68
2022/06/16 00:38:17;;;;;;;5.43;3.13;;;;;14.90;96389.00;;;;8387432;28;20280;-69
2022/06/16 00:42:23;;;;;;;3.40;3.10;;;;;15.00;96390.00;;;;8388894;28;20305;-68
2022/06/16 00:46:29;;;;;;;6.10;3.72;;;;;15.10;96379.00;;;;8397386;28;20238;-66
2022/06/16 00:50:33;;;;;;;4.00;3.25;;;;;15.10;96384.00;;;;8392892;28;20646;-70
2022/06/16 00:54:41;;;;;;;5.00;4.10;;;;;15.20;96374.00;;;;8400553;28;20236;-70
2022/06/16 00:58:48;;;;;;;8.02;3.55;;;;;15.20;96367.00;;;;8377807;28;20966;-68
2022/06/16 01:02:53;;;;;;;4.05;3.63;;;;;15.10;96364.00;;;;8381594;28;20322;-69
2022/06/16 01:06:57;;;;;;;4.15;3.50;;;;;15.10;96364.00;;;;8382729;28;20474;-69
2022/06/16 01:11:09;;;;;;;4.55;3.38;;;;;15.10;96368.00;;;;8394092;28;20292;-69
2022/06/16 01:15:22;;;;;;;5.55;3.83;;;;;15.00;96368.00;;;;8396325;28;20722;-66
2022/06/16 01:19:49;;;;;;;8.13;3.83;;;;;14.90;96368.00;;;;8374225;28;20299;-69
2022/06/16 01:24:16;;;;;;;4.47;3.97;;;;;14.90;96365.00;;;;8393247;28;20318;-67
2022/06/16 01:28:26;;;;;;;5.90;4.15;;;;;14.80;96377.00;;;;8389236;28;20224;-67
2022/06/16 01:32:39;;;;;;;12.23;4.55;;;;;14.80;96367.00;;;;8395382;28;20222;-67
2022/06/16 01:36:51;;;;;;;7.10;3.97;;;;;14.90;96371.00;;;;8376647;28;20287;-69
2022/06/16 01:41:04;;;;;;;11.40;4.00;;;;;15.00;96361.00;;;;8394707;28;20304;-69
2022/06/16 01:45:14;;;;;;;8.65;4.30;;;;;15.10;96356.00;;;;8394881;28;20276;-68
2022/06/16 01:49:22;;;;;;;7.80;3.65;;;;;15.20;96371.00;;;;8397772;28;20206;-68
2022/06/16 01:53:33;;;;;;;8.43;3.72;;;;;15.30;96369.00;;;;8398437;28;20768;-68
2022/06/16 01:57:41;;;;;;;17.52;4.10;;;;;15.40;96360.00;;;;8400902;28;20876;-69
2022/06/16 02:01:49;;;;;;;6.30;3.30;;;;;15.40;96358.00;;;;8399943;28;20247;-71
2022/06/16 02:05:56;;;;;;;8.85;3.85;;;;;15.50;96346.00;;;;8377760;28;20657;-70
2022/06/16 02:10:06;;;;;;;5.30;3.42;;;;;15.60;96359.00;;;;8388626;28;20195;-69
2022/06/16 02:14:15;;;;;;;4.80;3.17;;;;;15.60;96354.00;;;;8404144;28;20230;-69
2022/06/16 02:18:22;;;;;;;5.00;3.60;;;;;15.60;96361.00;;;;8399153;28;20207;-68
2022/06/16 02:22:27;;;;;;;6.72;3.72;;;;;15.60;96362.00;;;;8404533;28;20289;-67
2022/06/16 02:26:31;;;;;;;10.38;3.88;;;;;15.60;96365.00;;;;8393970;28;20200;-66
2022/06/16 02:30:42;;;;;;;4.15;3.72;;;;;15.60;96360.00;;;;8387247;28;20644;-68
2022/06/16 02:34:58;;;;;;;6.43;3.80;;;;;15.60;96352.00;;;;8403954;28;20227;-70
2022/06/16 02:39:15;;;;;;;4.28;3.63;;;;;15.50;96349.00;;;;8384967;28;20191;-69
2022/06/16 02:43:34;;;;;;;5.72;3.60;;;;;15.40;96340.00;;;;8406544;28;20630;-68
2022/06/16 02:47:48;;;;;;;7.28;3.75;;;;;15.40;96341.00;;;;8386450;28;20321;-68
2022/06/16 02:52:06;;;;;;;4.05;3.67;;;;;15.30;96341.00;;;;8388154;28;20204;-70
2022/06/16 02:56:19;;;;;;;10.63;4.63;;;;;15.40;96344.00;;;;8390787;28;20237;-70
2022/06/16 03:00:30;;;;;;;7.15;3.85;;;;;15.50;96339.00;;;;8387780;28;20197;-68
2022/06/16 03:04:36;;;;;;;6.88;3.65;;;;;15.50;96345.00;;;;8369139;23;20237;-68
2022/06/16 03:08:43;;;;;;;7.68;4.40;;;;;15.50;96339.00;;;;8344197;28;20233;-71
2022/06/16 03:12:47;;;;;;;6.07;3.67;;;;;15.70;96344.00;;;;8344160;28;20681;-69
2022/06/16 03:16:51;;;;;;;5.88;3.60;;;;;15.80;96330.00;;;;8346016;28;20228;-70
2022/06/16 03:20:54;;;;;;;8.63;3.75;;;;;15.80;96336.00;;;;8353230;28;20189;-68
2022/06/16 03:24:57;;;;;;;10.43;4.47;;;;;15.90;96327.00;;;;8352418;28;20726;-67
2022/06/16 03:29:02;;;;;;;5.03;4.30;;;;;15.90;96324.00;;;;8354981;28;20815;-68
2022/06/16 03:33:09;;;;;;;5.20;4.00;;;;;16.00;96329.00;;;;8350263;28;20582;-71
2022/06/16 03:37:12;;;;;;;5.45;3.72;;;;;16.10;96330.00;;;;8355228;28;20276;-72
2022/06/16 03:41:15;;;;;;;8.30;3.95;;;;;16.20;96330.00;;;;8350396;28;20200;-70
2022/06/16 03:45:20;;;;;;;4.95;4.45;;;;;16.30;96333.00;;;;8341148;28;20292;-68
2022/06/16 03:49:23;;;;;;;8.75;4.40;;;;;16.40;96331.00;;;;8347848;28;20201;-69
2022/06/16 03:53:27;;;;;;;5.57;4.70;;;;;16.70;96334.00;;;;8345607;28;20307;-69
2022/06/16 03:57:30;;;;;;;7.47;4.32;;;;;16.80;96339.00;;;;8342119;28;20203;-69
2022/06/16 04:01:34;;;;;;;5.55;4.57;;;;;17.00;96337.00;;;;8346079;28;20253;-70
2022/06/16 04:05:40;;;;;;;6.20;3.90;;;;;17.60;96342.00;;;;8344714;28;20208;-68
2022/06/16 04:09:44;;;;;;;7.45;3.92;;;;;18.20;96341.00;;;;8339217;28;20209;-68
2022/06/16 04:13:47;;;;;;;11.25;3.95;;;;;18.90;96330.00;;;;8343173;28;20227;-69
2022/06/16 04:17:51;;;;;;;7.13;4.13;;;;;19.50;96329.00;;;;8347133;28;20232;-71
2022/06/16 04:21:55;;;;;;;5.60;4.18;;;;;19.90;96323.00;;;;8349560;28;20200;-69
2022/06/16 04:25:58;;;;;;;5.97;3.72;;;;;20.40;96334.00;;;;8348259;28;20681;-68
2022/06/16 04:30:01;;;;;;;6.93;4.38;;;;;20.90;96336.00;;;;8346491;28;20197;-72
2022/06/16 04:34:06;;;;;;;4.50;3.75;;;;;21.70;96343.00;;;;8339781;28;20299;-68
2022/06/16 04:38:09;;;;;;;5.72;3.63;;;;;22.10;96349.00;;;;8340621;28;20203;-71
2022/06/16 04:42:13;;;;;;;4.75;3.65;;;;;22.00;96339.00;;;;8349341;28;20203;-69
2022/06/16 04:46:17;;;;;;;8.05;4.03;;;;;22.30;96344.00;;;;8357816;28;20207;-70
2022/06/16 04:50:22;;;;;;;10.57;4.10;;;;;22.20;96349.00;;;;8351762;28;20980;-70
2022/06/16 04:54:26;;;;;;;9.20;3.80;;;;;21.90;96338.00;;;;8353227;28;20268;-69
2022/06/16 04:58:30;;;;;;;9.85;4.00;;;;;22.10;96340.00;;;;8342626;28;20215;-71
2022/06/16 05:02:33;;;;;;;4.78;3.85;;;;;22.40;96348.00;;;;8347450;28;20324;-70
2022/06/16 05:06:38;;;;;;;6.82;4.10;;;;;22.90;96349.00;;;;8350085;28;20829;-70
2022/06/16 05:10:41;;;;;;;6.88;4.30;;;;;23.40;96349.00;;;;8358478;28;20200;-70
2022/06/16 05:14:45;;;;;;;4.60;3.90;;;;;23.40;96352.00;;;;8348333;28;20327;-72
2022/06/16 05:18:48;;;;;;;9.18;4.00;;;;;23.20;96357.00;;;;8347012;28;20360;-70
2022/06/16 05:22:53;;;;;;;6.00;3.88;;;;;23.20;96356.00;;;;8353653;28;20893;-71
2022/06/16 05:26:56;;;;;;;9.90;4.00;;;;;23.00;96361.00;;;;8342911;28;20201;-71
2022/06/16 05:30:59;;;;;;;5.68;3.92;;;;;23.30;96364.00;;;;8352209;28;20834;-70
2022/06/16 05:35:03;;;;;;;5.70;3.97;;;;;23.10;96367.00;;;;8338057;28;20290;-70
2022/06/16 05:39:08;;;;;;;10.45;4.05;;;;;23.50;96373.00;;;;8353259;28;20205;-71
2022/06/16 05:43:11;;;;;;;6.22;3.95;;;;;24.50;96378.00;;;;8350414;28;20288;-69
2022/06/16 05:47:14;;;;;;;3.92;3.53;;;;;24.80;96379.00;;;;8350828;28;20905;-69
2022/06/16 05:51:18;;;;;;;6.60;4.28;;;;;25.10;96386.00;;;;8345964;28;20203;-71
2022/06/16 05:55:23;;;;;;;6.82;3.78;;;;;25.70;96399.00;;;;8347729;28;20319;-71
2022/06/16 05:59:26;;;;;;;7.80;4.10;;;;;26.00;96399.00;;;;8343492;28;20283;-70
2022/06/16 06:03:29;;;;;;;8.77;3.67;;;;;26.60;96399.00;;;;8350540;28;20327;-69
2022/06/16 06:16:25;;;;;;;3.67;3.38;;;;;26.80;96410.00;;;;8355504;28;20212;-71
2022/06/16 06:16:26;;;;;;;8.82;3.88;;;;;26.90;96388.00;;;;8349070;28;20228;-70
2022/06/16 06:20:30;;;;;;;6.28;3.78;;;;;27.20;96403.00;;;;8347148;28;20204;-70
2022/06/16 06:24:35;;;;;;;6.65;3.20;;;;;27.50;96407.00;;;;8350403;28;20876;-73
2022/06/16 06:28:40;;;;;;;9.15;3.78;;;;;28.00;96407.00;;;;8332322;28;20203;-72
2022/06/16 06:32:43;;;;;;;6.65;3.50;;;;;28.40;96408.00;;;;8340996;28;20200;-70
2022/06/16 06:36:47;;;;;;;4.88;3.33;;;;;28.90;96417.00;;;;8345944;28;20316;-71
2022/06/16 06:40:51;;;;;;;5.30;3.15;;;;;29.10;96410.00;;;;8339800;28;20715;-71
2022/06/16 06:44:55;;;;;;;5.22;3.00;;;;;28.70;96415.00;;;;8346229;28;20211;-74
2022/06/16 06:48:59;;;;;;;3.47;3.17;;;;;29.20;96410.00;;;;8341146;28;20198;-71
2022/06/16 06:53:02;;;;;;;6.97;3.30;;;;;29.00;96408.00;;;;8339219;28;20280;-70
2022/06/16 06:57:06;;;;;;;3.30;3.05;;;;;28.60;96403.00;;;;8356242;28;20225;-74
2022/06/16 07:01:11;;;;;;;3.97;3.15;;;;;27.90;96406.00;;;;8343834;28;20371;-72
2022/06/16 07:05:14;;;;;;;8.05;3.28;;;;;28.20;96402.00;;;;8350798;28;20678;-73
2022/06/16 07:09:22;;;;;;;4.05;3.00;;;;;29.10;96413.00;;;;8339390;28;20200;-73
2022/06/16 07:13:25;;;;;;;4.68;3.00;;;;;28.90;96413.00;;;;8345567;28;21122;-74
2022/06/16 07:17:30;;;;;;;4.60;2.90;;;;;28.80;96415.00;;;;8336543;28;20225;-73
2022/06/16 07:21:35;;;;;;;4.97;3.30;;;;;29.60;96407.00;;;;8342325;28;20212;-74
2022/06/16 07:25:41;;;;;;;7.90;3.30;;;;;30.60;96399.00;;;;8359219;28;20247;-72
2022/06/16 07:29:46;;;;;;;3.30;2.88;;;;;30.90;96395.00;;;;8353061;28;20658;-72
2022/06/16 07:33:51;;;;;;;3.80;3.35;;;;;31.60;96396.00;;;;8356471;28;20296;-73
2022/06/16 07:37:54;;;;;;;6.47;3.03;;;;;32.10;96389.00;;;;8343569;28;20327;-72
2022/06/16 07:41:59;;;;;;;3.75;2.83;;;;;32.60;96390.00;;;;8341355;28;20199;-72
2022/06/16 07:46:02;;;;;;;5.38;3.00;;;;;33.00;96389.00;;;;8343937;28;20193;-73
2022/06/16 07:50:10;;;;;;;5.53;3.10;;;;;33.40;96401.00;;;;8343140;28;20262;-73
2022/06/16 07:54:14;;;;;;;4.72;2.70;;;;;33.70;96417.00;;;;8348753;28;20223;-71
2022/06/16 07:58:39;;;;;;;5.68;2.97;;;;;34.30;96423.00;;;;8353414;28;20195;-71
2022/06/16 08:02:42;;;;;;;4.03;3.10;;;;;34.40;96419.00;;;;8335974;28;20328;-71
2022/06/16 08:06:47;;;;;;;4.18;3.50;;;;;34.30;96426.00;;;;8347312;28;20227;-73
2022/06/16 08:10:51;;;;;;;5.95;3.33;;;;;34.40;96421.00;;;;8348906;28;20200;-73
2022/06/16 08:14:54;;;;;;;5.00;3.15;;;;;34.90;96420.00;;;;8351493;28;20661;-72
2022/06/16 08:18:58;;;;;;;6.00;3.30;;;;;35.60;96420.00;;;;8356158;28;20200;-75
2022/06/16 08:23:03;;;;;;;7.15;3.22;;;;;36.00;96412.00;;;;8347389;28;20224;-71
2022/06/16 08:27:07;;;;;;;3.38;3.08;;;;;36.30;96417.00;;;;8352287;28;20283;-68
2022/06/16 08:31:10;;;;;;;4.28;2.97;;;;;36.00;96416.00;;;;8344440;28;20212;-70
2022/06/16 08:35:14;;;;;;;6.50;2.88;;;;;35.60;96423.00;;;;8345175;28;20224;-67
2022/06/16 08:39:18;;;;;;;3.47;2.97;;;;;35.10;96429.00;;;;8338695;28;20207;-72
2022/06/16 08:43:28;;;;;;;3.10;2.90;;;;;34.90;96436.00;;;;8344858;28;20199;-71
2022/06/16 08:47:38;;;;;;;2.97;2.67;;;;;34.90;96434.00;;;;8342579;28;20207;-71
2022/06/16 08:51:52;;;;;;;3.95;2.90;;;;;35.30;96433.00;;;;8348645;28;20288;-70
2022/06/16 08:56:01;;;;;;;3.53;3.08;;;;;36.00;96434.00;;;;8348829;28;20316;-70
2022/06/16 09:00:07;;;;;;;6.85;3.40;;;;;36.20;96430.00;;;;8338687;28;20197;-69
2022/06/16 09:04:17;;;;;;;4.38;3.03;;;;;35.80;96429.00;;;;8346487;28;20731;-70
2022/06/16 09:08:35;;;;;;;4.95;3.05;;;;;36.60;96426.00;;;;8351267;28;20661;-69
2022/06/16 09:13:04;;;;;;;3.42;2.53;;;;;37.50;96425.00;;;;8342082;28;20212;-72
2022/06/16 09:17:13;;;;;;;7.50;3.35;;;;;38.00;96435.00;;;;8345458;28;20221;-69
2022/06/16 09:21:25;;;;;;;3.65;3.05;;;;;38.00;96436.00;;;;8354419;28;20277;-69
2022/06/16 09:25:42;;;;;;;3.33;3.03;;;;;37.50;96446.00;;;;8352886;28;20219;-71
2022/06/16 09:29:52;;;;;;;3.45;2.80;;;;;36.90;96445.00;;;;8349415;28;20193;-71
2022/06/16 09:34:03;;;;;;;5.05;3.80;;;;;36.60;96446.00;;;;8354667;28;20193;-69
2022/06/16 09:38:11;;;;;;;12.68;6.15;;;;;36.50;96447.00;;;;8355198;28;20235;-71
2022/06/16 09:42:35;;;;;;;4.13;3.72;;;;;36.40;96449.00;;;;8350528;28;20202;-71
2022/06/16 09:46:46;;;;;;;3.03;2.67;;;;;36.40;96451.00;;;;8350176;28;20204;-69
2022/06/16 09:50:53;;;;;;;3.40;3.10;;;;;36.20;96450.00;;;;8344936;28;20239;-70
2022/06/16 09:55:01;;;;;;;3.05;2.78;;;;;36.30;96450.00;;;;8353602;28;20203;-72
2022/06/16 09:59:10;;;;;;;6.60;3.38;;;;;36.40;96460.00;;;;8356359;28;20741;-70
2022/06/16 10:03:27;;;;;;;4.63;3.53;;;;;36.70;96464.00;;;;8349097;28;20325;-69
2022/06/16 10:07:38;;;;;;;5.53;4.38;;;;;37.20;96465.00;;;;8349607;28;20266;-70
2022/06/16 10:11:52;;;;;;;5.47;3.63;;;;;38.20;96463.00;;;;8349663;28;20197;-70
2022/06/16 10:16:02;;;;;;;4.22;3.83;;;;;39.20;96458.00;;;;8353087;28;20232;-68
2022/06/16 10:20:08;;;;;;;3.75;2.70;;;;;39.60;96463.00;;;;8351483;28;20220;-69
2022/06/16 10:24:12;;;;;;;4.07;2.78;;;;;39.70;96456.00;;;;8352692;28;20235;-70
2022/06/16 10:28:27;;;;;;;5.65;3.80;;;;;39.80;96454.00;;;;8348190;28;20192;-69
2022/06/16 10:32:42;;;;;;;5.38;3.80;;;;;39.20;96451.00;;;;8346536;28;20287;-70
2022/06/16 10:36:59;;;;;;;8.93;6.93;;;;;38.30;96460.00;;;;8341828;28;20251;-70
2022/06/16 10:41:07;;;;;;;4.13;3.60;;;;;38.20;96455.00;;;;8340782;28;20657;-70
2022/06/16 10:45:17;;;;;;;11.48;10.32;;;;;38.90;96457.00;;;;8338549;28;20629;-71
2022/06/16 10:49:24;;;;;;;6.53;5.63;;;;;39.40;96452.00;;;;8350948;28;20888;-71
2022/06/16 10:53:32;;;;;;;8.77;6.15;;;;;39.40;96453.00;;;;8362018;28;20208;-70
2022/06/16 10:57:44;;;;;;;4.88;3.67;;;;;38.80;96445.00;;;;8348380;28;20224;-71
2022/06/16 11:01:53;;;;;;;306.25;242.88;;;;;38.30;96451.00;;;;8341333;28;20316;-70
2022/06/16 11:06:00;;;;;;;9.45;8.48;;;;;37.70;96448.00;;;;8336415;28;20473;-71
2022/06/16 11:10:09;;;;;;;4.93;4.35;;;;;36.60;96452.00;;;;8348184;28;20197;-71
2022/06/16 11:14:17;;;;;;;4.60;3.30;;;;;36.10;96441.00;;;;8348110;28;20201;-71
2022/06/16 11:18:25;;;;;;;5.50;3.33;;;;;36.30;96433.00;;;;8327694;28;20290;-70
2022/06/16 11:22:31;;;;;;;6.13;2.83;;;;;36.50;96438.00;;;;8353959;28;20705;-71
2022/06/16 11:26:42;;;;;;;18.40;4.80;;;;;36.70;96432.00;;;;8354857;28;20199;-71
2022/06/16 11:30:56;;;;;;;3.05;2.80;;;;;38.00;96432.00;;;;8344983;28;20236;-71
2022/06/16 11:35:21;;;;;;;4.88;3.40;;;;;38.60;96426.00;;;;8347967;28;20196;-70
2022/06/16 11:39:37;;;;;;;4.63;3.40;;;;;39.00;96426.00;;;;8350182;28;20229;-70
2022/06/16 11:44:18;;;;;;;5.70;3.08;;;;;37.90;96431.00;;;;8345479;28;20236;-71
2022/06/16 11:48:30;;;;;;;6.63;2.97;;;;;36.90;96428.00;;;;8297524;28;20259;-71
2022/06/16 11:52:44;;;;;;;3.00;2.70;;;;;36.70;96419.00;;;;8346351;28;20197;-71
2022/06/16 11:56:52;;;;;;;2.92;2.80;;;;;37.60;96410.00;;;;8351152;28;20312;-70
2022/06/16 12:01:02;;;;;;;3.15;2.80;;;;;38.90;96408.00;;;;8340213;28;20197;-71
2022/06/16 12:05:19;;;;;;;3.00;2.80;;;;;37.90;96426.00;;;;8352215;28;20197;-69
2022/06/16 12:09:39;;;;;;;5.93;2.88;;;;;36.80;96435.00;;;;8351851;28;20308;-71
2022/06/16 12:13:52;;;;;;;8.77;3.70;;;;;35.90;96449.00;;;;8349249;28;20288;-69
2022/06/16 12:18:13;;;;;;;4.13;3.72;;;;;35.10;96459.00;;;;8346551;28;20221;-69
2022/06/16 12:22:25;;;;;;;3.72;3.50;;;;;34.20;96461.00;;;;8345136;28;20193;-70
2022/06/16 12:26:33;;;;;;;5.32;4.40;;;;;33.50;96458.00;;;;8347293;28;20283;-69
2022/06/16 12:30:41;;;;;;;5.18;4.00;;;;;32.70;96457.00;;;;8338205;28;20197;-71
2022/06/16 12:34:59;;;;;;;6.45;4.25;;;;;32.20;96460.00;;;;8337364;28;20838;-70
2022/06/16 12:39:08;;;;;;;5.90;4.00;;;;;32.60;96461.00;;;;8337135;28;20715;-69
2022/06/16 12:43:18;;;;;;;7.10;4.63;;;;;33.30;96457.00;;;;8341169;28;20211;-70
2022/06/16 12:47:26;;;;;;;7.78;3.60;;;;;33.70;96466.00;;;;8340609;28;20292;-68
2022/06/16 12:51:36;;;;;;;3.60;3.30;;;;;33.30;96457.00;;;;8338850;28;20669;-70
2022/06/16 12:55:43;;;;;;;7.18;3.60;;;;;33.60;96463.00;;;;8341871;28;20212;-70
2022/06/16 12:59:52;;;;;;;3.35;3.05;;;;;33.80;96462.00;;;;8337596;28;20229;-69
2022/06/16 13:04:01;;;;;;;5.50;3.20;;;;;34.20;96451.00;;;;8342489;28;20686;-77
2022/06/16 13:08:07;;;;;;;4.47;3.30;;;;;34.60;96448.00;;;;8345250;28;20207;-72
2022/06/16 13:12:21;;;;;;;5.97;3.00;;;;;35.20;96453.00;;;;8350954;28;20288;-70
2022/06/16 13:16:28;;;;;;;4.13;3.08;;;;;35.40;96448.00;;;;8338210;28;20232;-73
2022/06/16 13:20:34;;;;;;;4.72;3.85;;;;;36.20;96442.00;;;;8347178;28;20196;-73
2022/06/16 13:24:42;;;;;;;3.42;3.13;;;;;36.90;96434.00;;;;8347860;28;20207;-71
2022/06/16 13:29:02;;;;;;;5.40;3.42;;;;;37.20;96421.00;;;;8349478;28;20207;-76
2022/06/16 13:33:31;;;;;;;6.00;2.92;;;;;36.10;96420.00;;;;8348230;28;20263;-69
2022/06/16 13:37:39;;;;;;;4.25;3.38;;;;;35.30;96433.00;;;;8341300;28;20228;-73
2022/06/16 13:41:44;;;;;;;7.65;3.17;;;;;34.90;96425.00;;;;8338543;28;20917;-74
2022/06/16 13:45:57;;;;;;;3.05;2.85;;;;;35.60;96420.00;;;;8349988;28;20201;-70
2022/06/16 13:50:03;;;;;;;7.15;3.47;;;;;34.80;96433.00;;;;8341352;28;20201;-72
2022/06/16 13:54:07;;;;;;;3.90;3.20;;;;;35.30;96440.00;;;;8343376;28;20200;-76
2022/06/16 13:58:19;;;;;;;4.72;3.00;;;;;35.30;96425.00;;;;8347433;28;20216;-69
2022/06/16 14:02:23;;;;;;;3.42;3.10;;;;;34.20;96449.00;;;;8349102;28;20237;-75
2022/06/16 14:06:31;;;;;;;3.17;2.97;;;;;34.50;96444.00;;;;8345603;28;20208;-70
2022/06/16 14:10:38;;;;;;;4.25;3.42;;;;;35.60;96451.00;;;;8346907;28;20581;-71
2022/06/16 14:15:18;;;;;;;3.53;3.22;;;;;35.70;96472.00;;;;8346911;28;20307;-73
2022/06/16 14:19:30;;;;;;;4.30;3.38;;;;;35.70;96456.00;;;;8342233;28;20228;-71
2022/06/16 14:23:41;;;;;;;7.22;3.20;;;;;35.70;96466.00;;;;8348062;28;20280;-72
2022/06/16 14:27:49;;;;;;;3.92;2.90;;;;;34.30;96469.00;;;;8347608;28;20208;-73
2022/06/16 14:31:59;;;;;;;6.53;3.38;;;;;33.90;96458.00;;;;8344722;28;20197;-72
2022/06/16 14:36:11;;;;;;;7.05;3.50;;;;;34.00;96462.00;;;;8327183;28;20289;-73
2022/06/16 14:40:18;;;;;;;3.47;3.08;;;;;33.90;96467.00;;;;8342048;28;20230;-70
2022/06/16 14:44:25;;;;;;;7.32;2.97;;;;;33.60;96468.00;;;;8354787;28;20671;-68
2022/06/16 14:48:34;;;;;;;3.72;3.17;;;;;33.40;96486.00;;;;8341953;28;20697;-71
2022/06/16 14:52:46;;;;;;;8.52;3.60;;;;;33.00;96479.00;;;;8336897;28;20196;-70
2022/06/16 14:56:52;;;;;;;4.07;3.20;;;;;32.80;96499.00;;;;8345512;28;20193;-71
2022/06/16 15:00:58;;;;;;;5.60;3.53;;;;;32.90;96479.00;;;;8355700;28;20232;-70
2022/06/16 15:05:06;;;;;;;6.47;3.30;;;;;33.50;96501.00;;;;8310368;28;20754;-70
2022/06/16 15:09:25;;;;;;;3.60;3.30;;;;;33.90;96503.00;;;;8311188;28;20259;-70
2022/06/16 15:13:31;;;;;;;4.80;3.22;;;;;33.90;96490.00;;;;8309921;28;20228;-71
2022/06/16 15:21:59;;;;;;;5.55;3.60;;;;;33.50;96497.00;;;;8315651;28;20808;-73
2022/06/16 15:26:07;;;;;;;8.60;3.47;;;;;33.30;96498.00;;;;8320117;28;20291;-73
2022/06/16 15:30:25;;;;;;;7.82;3.30;;;;;33.40;96496.00;;;;8322946;28;20197;-72
2022/06/16 15:38:52;;;;;;;4.72;3.55;;;;;34.30;96499.00;;;;8314779;28;20308;-68
2022/06/16 15:42:57;;;;;;;5.05;3.50;;;;;34.80;96495.00;;;;8312720;28;20227;-69
2022/06/16 15:47:06;;;;;;;4.43;3.33;;;;;35.30;96501.00;;;;8310904;28;20617;-73
2022/06/16 15:51:12;;;;;;;4.78;3.30;;;;;35.10;96513.00;;;;8311251;28;20629;-70
2022/06/16 15:55:20;;;;;;;6.47;3.38;;;;;34.70;96518.00;;;;8312099;28;20225;-75
2022/06/16 15:59:26;;;;;;;8.35;3.28;;;;;34.20;96505.00;;;;8299130;28;20312;-72
2022/06/16 16:03:32;;;;;;;6.68;3.13;;;;;33.80;96505.00;;;;8311360;28;20233;-70
2022/06/16 16:07:38;;;;;;;9.50;3.15;;;;;34.00;96511.00;;;;8349532;28;20527;-72
2022/06/16 16:11:42;;;;;;;4.60;3.10;;;;;34.20;96511.00;;;;8343788;28;20221;-77
2022/06/16 16:16:01;;;;;;;5.57;3.20;;;;;34.10;96524.00;;;;8348593;28;21926;-77
2022/06/16 16:20:05;;;;;;;5.03;3.28;;;;;34.10;96525.00;;;;8347646;28;20224;-73
2022/06/16 16:24:10;;;;;;;4.05;2.78;;;;;34.20;96536.00;;;;8350955;28;20280;-72
2022/06/16 16:28:26;;;;;;;5.18;2.85;;;;;33.80;96540.00;;;;8354297;28;20211;-73
2022/06/16 16:32:33;;;;;;;4.45;2.97;;;;;33.40;96546.00;;;;8344419;28;20529;-72
2022/06/16 16:36:38;;;;;;;3.50;3.10;;;;;33.20;96534.00;;;;8347219;28;20529;-72
2022/06/16 16:45:17;;;;;;;6.47;2.72;;;;;33.00;96554.00;;;;8352718;28;20280;-72
2022/06/16 16:49:52;;;;;;;4.97;3.15;;;;;32.80;96552.00;;;;8359268;28;20198;-74
2022/06/16 16:53:57;;;;;;;5.00;3.25;;;;;32.70;96555.00;;;;8352737;28;20201;-70
2022/06/16 16:58:02;;;;;;;4.05;3.05;;;;;32.60;96556.00;;;;8352385;28;20288;-69
2022/06/16 17:02:05;;;;;;;5.00;2.90;;;;;32.50;96563.00;;;;8355025;28;20236;-70
2022/06/16 17:06:10;;;;;;;6.05;3.10;;;;;32.80;96579.00;;;;8351672;28;20535;-70
2022/06/16 17:10:14;;;;;;;6.60;3.10;;;;;32.90;96578.00;;;;8362213;28;20197;-73
2022/06/16 17:14:20;;;;;;;8.45;2.85;;;;;33.30;96580.00;;;;8350098;28;20695;-69
2022/06/16 17:18:23;;;;;;;3.67;2.83;;;;;33.50;96585.00;;;;8340596;28;20247;-72
2022/06/16 17:22:35;;;;;;;3.92;2.80;;;;;33.30;96589.00;;;;8349667;28;20229;-70
2022/06/16 17:26:39;;;;;;;8.35;2.70;;;;;33.20;96595.00;;;;8348148;28;20653;-70
2022/06/16 17:30:42;;;;;;;6.68;3.22;;;;;32.80;96597.00;;;;8357794;28;20323;-68
2022/06/16 17:34:51;;;;;;;5.25;2.92;;;;;32.40;96598.00;;;;8349389;28;20227;-69
2022/06/16 17:38:56;;;;;;;17.77;3.20;;;;;32.30;96600.00;;;;8341329;28;20423;-68
2022/06/16 17:43:00;;;;;;;3.55;3.10;;;;;32.50;96604.00;;;;8347416;28;20716;-69
2022/06/16 17:47:04;;;;;;;9.43;2.90;;;;;32.50;96611.00;;;;8337250;28;20769;-71
2022/06/16 17:51:10;;;;;;;9.70;3.60;;;;;32.20;96620.00;;;;8346897;28;20309;-68
2022/06/16 17:59:42;;;;;;;4.13;2.88;;;;;30.60;96620.00;;;;8349570;28;20831;-70
2022/06/16 18:03:48;;;;;;;10.80;2.85;;;;;29.90;96620.00;;;;8355565;28;20260;-69
2022/06/16 18:07:52;;;;;;;7.60;2.80;;;;;29.20;96627.00;;;;8343342;28;20601;-70
2022/06/16 18:11:56;;;;;;;6.45;2.65;;;;;28.80;96634.00;;;;8343324;28;20275;-69
2022/06/16 18:16:00;;;;;;;6.75;2.70;;;;;28.30;96631.00;;;;8346685;28;20209;-70
2022/06/16 18:20:04;;;;;;;3.25;2.40;;;;;28.00;96634.00;;;;8340336;28;20232;-70
2022/06/16 18:24:12;;;;;;;2.50;2.30;;;;;27.80;96645.00;;;;8347954;28;20192;-76
2022/06/16 18:28:19;;;;;;;7.15;2.45;;;;;27.60;96645.00;;;;8356616;28;20213;-75
2022/06/16 18:32:22;;;;;;;5.80;2.70;;;;;27.40;96652.00;;;;8352183;28;20320;-76
2022/06/16 18:36:25;;;;;;;6.97;2.67;;;;;27.10;96651.00;;;;8355986;28;20200;-76
2022/06/16 18:40:31;;;;;;;3.67;2.20;;;;;26.90;96660.00;;;;8357456;28;20319;-76
2022/06/16 18:44:36;;;;;;;4.78;2.50;;;;;26.70;96661.00;;;;8354643;28;20590;-77
2022/06/16 18:48:41;;;;;;;4.47;2.13;;;;;26.50;96658.00;;;;8355114;28;20291;-77
2022/06/16 18:52:44;;;;;;;2.28;2.08;;;;;26.30;96661.00;;;;8349650;28;20346;-74
2022/06/16 18:56:47;;;;;;;4.70;2.30;;;;;26.10;96665.00;;;;8342321;28;21002;-75
2022/06/16 19:00:53;;;;;;;3.17;2.15;;;;;25.90;96666.00;;;;8353210;28;20232;-74
2022/06/16 19:04:57;;;;;;;5.00;2.13;;;;;25.70;96671.00;;;;8360063;28;20717;-74
2022/06/16 19:09:02;;;;;;;3.85;2.00;;;;;25.50;96673.00;;;;8357842;28;20284;-73
2022/06/16 19:13:05;;;;;;;3.42;2.10;;;;;25.20;96667.00;;;;8340878;28;20664;-74
2022/06/16 19:17:15;;;;;;;2.17;2.08;;;;;25.00;96681.00;;;;8351228;28;20272;-72
2022/06/16 19:21:22;;;;;;;4.82;2.65;;;;;24.80;96683.00;;;;8349668;28;20225;-73
2022/06/16 19:25:27;;;;;;;4.57;2.22;;;;;24.60;96688.00;;;;8346307;28;20220;-73
2022/06/16 19:29:33;;;;;;;2.40;2.20;;;;;24.40;96694.00;;;;8353235;28;20283;-73
2022/06/16 19:33:38;;;;;;;2.47;2.05;;;;;24.20;96703.00;;;;8345225;28;20284;-71
2022/06/16 19:37:44;;;;;;;3.55;2.50;;;;;24.10;96706.00;;;;8351938;28;20284;-75
2022/06/16 19:41:55;;;;;;;2.05;1.92;;;;;23.90;96712.00;;;;8345675;28;20256;-74
2022/06/16 19:54:43;;;;;;;4.22;2.05;;;;;23.30;96724.00;;;;8333089;28;20208;-72
2022/06/16 19:58:47;;;;;;;3.60;2.20;;;;;23.20;96735.00;;;;8358020;28;20196;-74
2022/06/16 20:02:54;;;;;;;2.45;2.17;;;;;23.10;96743.00;;;;8344609;28;20339;-73
2022/06/16 20:07:01;;;;;;;2.97;2.30;;;;;23.00;96745.00;;;;8348374;28;20203;-73
2022/06/16 20:11:06;;;;;;;2.45;2.22;;;;;22.90;96754.00;;;;8354345;28;20311;-74
2022/06/16 20:15:10;;;;;;;2.63;2.20;;;;;22.90;96767.00;;;;8351234;28;20748;-74
2022/06/16 20:19:14;;;;;;;2.53;2.33;;;;;22.80;96769.00;;;;8346884;28;20204;-72
2022/06/16 20:23:22;;;;;;;5.45;2.38;;;;;22.80;96778.00;;;;8353316;28;20627;-76
2022/06/16 20:27:26;;;;;;;2.53;2.30;;;;;22.80;96789.00;;;;8350398;28;20288;-80
2022/06/16 20:31:29;;;;;;;3.28;2.30;;;;;22.80;96804.00;;;;8342360;28;20812;-76
2022/06/16 20:35:32;;;;;;;2.78;2.58;;;;;22.80;96801.00;;;;8349418;28;20232;-72
2022/06/16 20:39:37;;;;;;;3.17;2.47;;;;;22.70;96796.00;;;;8348850;28;20909;-76
2022/06/16 20:43:40;;;;;;;4.50;2.40;;;;;22.60;96791.00;;;;8348092;28;20208;-75
2022/06/16 20:47:43;;;;;;;7.05;2.80;;;;;22.60;96791.00;;;;8349148;28;20201;-75
2022/06/16 20:51:48;;;;;;;2.90;2.42;;;;;22.30;96800.00;;;;8350313;28;20197;-72
2022/06/16 20:55:52;;;;;;;3.90;2.58;;;;;22.20;96787.00;;;;8355087;28;20280;-74
2022/06/16 21:04:16;;;;;;;2.45;2.25;;;;;21.80;96781.00;;;;8348063;28;20231;-74
2022/06/16 21:08:21;;;;;;;3.25;2.50;;;;;21.60;96787.00;;;;8347560;28;20196;-73
2022/06/16 21:12:26;;;;;;;3.35;2.35;;;;;21.50;96789.00;;;;8334646;28;20837;-73